createdAt,value
2023-03-29T00:00:10.096Z,3.7
2023-03-29T00:05:10.095Z,3.5
2023-03-29T00:10:10.091Z,3.4
2023-03-29T00:15:10.092Z,3.4
2023-03-29T00:20:10.134Z,3.4
2023-03-29T00:25:10.079Z,3.5
2023-03-29T00:30:10.203Z,3.4
2023-03-29T00:35:10.097Z,3.4
2023-03-29T00:40:10.091Z,3.3
2023-03-29T00:45:10.091Z,3.4
2023-03-29T00:50:10.089Z,3.4
2023-03-29T00:55:10.110Z,3.3
2023-03-29T01:00:10.154Z,3.4
2023-03-29T01:05:10.099Z,3.3
2023-03-29T01:10:10.094Z,3.3
2023-03-29T01:15:10.108Z,3.3
2023-03-29T01:20:10.133Z,3.4
2023-03-29T01:25:10.099Z,3.4
2023-03-29T01:30:10.103Z,3.4
2023-03-29T01:35:10.113Z,3.4
2023-03-29T01:40:10.092Z,3.4
2023-03-29T01:45:10.086Z,3.4
2023-03-29T01:50:10.109Z,3.4
2023-03-29T01:55:10.103Z,3.4
2023-03-29T02:00:10.091Z,3.3
2023-03-29T02:05:10.110Z,3.2
2023-03-29T02:10:10.099Z,3.2
2023-03-29T02:15:10.085Z,3.1
2023-03-29T02:20:10.101Z,3.1
2023-03-29T02:25:10.080Z,3.1
2023-03-29T02:30:10.104Z,3.2
2023-03-29T02:35:10.086Z,3.1
2023-03-29T02:40:10.090Z,3.1
2023-03-29T02:45:10.088Z,3.1
2023-03-29T02:50:10.097Z,3.1
2023-03-29T02:55:10.084Z,3.1
2023-03-29T03:00:10.097Z,3.2
2023-03-29T03:05:10.097Z,3.3
2023-03-29T03:10:10.120Z,3.5
2023-03-29T03:15:10.093Z,3.6
2023-03-29T03:20:10.099Z,3.6
2023-03-29T03:25:10.080Z,3.6
2023-03-29T03:30:10.110Z,3.5
2023-03-29T03:35:10.085Z,3.5
2023-03-29T03:40:10.103Z,3.5
2023-03-29T03:45:10.084Z,3.5
2023-03-29T03:50:10.081Z,3.5
2023-03-29T03:55:10.085Z,3.6
2023-03-29T04:00:10.101Z,3.6
2023-03-29T04:05:10.085Z,3.7
2023-03-29T04:10:10.101Z,3.7
2023-03-29T04:15:10.084Z,3.7
2023-03-29T04:20:10.104Z,3.8
2023-03-29T04:25:10.084Z,3.8
2023-03-29T04:30:10.096Z,3.8
2023-03-29T04:35:10.089Z,3.7
2023-03-29T04:40:10.112Z,3.7
2023-03-29T04:45:10.191Z,3.6
2023-03-29T04:50:10.100Z,3.6
2023-03-29T04:55:10.088Z,3.7
2023-03-29T05:00:10.099Z,3.6
2023-03-29T05:05:10.091Z,3.7
2023-03-29T05:10:10.084Z,3.7
2023-03-29T05:15:10.086Z,3.7
2023-03-29T05:20:10.096Z,3.7
2023-03-29T05:25:10.090Z,3.7
2023-03-29T05:30:10.105Z,3.7
2023-03-29T05:35:10.109Z,3.7
2023-03-29T05:40:10.227Z,3.7
2023-03-29T05:45:10.092Z,3.7
2023-03-29T05:50:10.094Z,3.8
2023-03-29T05:55:10.081Z,3.8
2023-03-29T06:00:10.103Z,3.9
2023-03-29T06:05:10.132Z,3.9
2023-03-29T06:10:10.098Z,4
2023-03-29T06:15:10.088Z,4.1
2023-03-29T06:20:10.096Z,4.1
2023-03-29T06:25:10.093Z,4.2
2023-03-29T06:30:10.106Z,4.3
2023-03-29T06:35:10.099Z,4.4
2023-03-29T06:40:10.101Z,4.5
2023-03-29T06:45:10.079Z,4.5
2023-03-29T06:50:10.100Z,4.6
2023-03-29T06:55:10.100Z,4.6
2023-03-29T07:00:10.096Z,4.7
2023-03-29T07:05:10.093Z,4.8
2023-03-29T07:10:10.095Z,4.9
2023-03-29T07:15:10.089Z,5
2023-03-29T07:20:10.086Z,5.1
2023-03-29T07:25:10.082Z,5.2
2023-03-29T07:30:10.093Z,5.3
2023-03-29T07:35:10.087Z,5.5
2023-03-29T07:40:10.095Z,5.7
2023-03-29T07:45:10.098Z,5.9
2023-03-29T07:50:10.087Z,5.9
2023-03-29T07:55:10.089Z,6
2023-03-29T08:00:10.091Z,6.1
2023-03-29T08:05:10.113Z,6.2
2023-03-29T08:10:10.095Z,6.4
2023-03-29T08:15:10.089Z,6.5
2023-03-29T08:20:10.098Z,6.7
2023-03-29T08:25:10.095Z,6.9
2023-03-29T08:30:10.093Z,7.1
2023-03-29T08:35:10.099Z,7.2
2023-03-29T08:40:10.115Z,7.2
2023-03-29T08:45:10.084Z,7.3
2023-03-29T08:50:10.092Z,7.4
2023-03-29T08:55:10.091Z,7.6
2023-03-29T09:00:10.093Z,7.7
2023-03-29T09:05:10.095Z,7.8
2023-03-29T09:10:10.098Z,8
2023-03-29T09:15:10.116Z,8.2
2023-03-29T09:20:10.085Z,8.4
2023-03-29T09:25:10.084Z,8.6
2023-03-29T09:30:10.094Z,8.8
2023-03-29T09:35:10.097Z,8.8
2023-03-29T09:40:10.099Z,8.9
2023-03-29T09:45:10.100Z,8.9
2023-03-29T09:50:16.806Z,9
2023-03-29T09:55:10.085Z,9.1
2023-03-29T10:00:10.088Z,9.4
2023-03-29T10:05:10.087Z,9.4
2023-03-29T10:10:10.084Z,9.6
2023-03-29T10:15:16.793Z,9.8
2023-03-29T10:20:10.195Z,10.2
2023-03-29T10:25:10.086Z,10.2
2023-03-29T10:30:10.094Z,10.2
2023-03-29T10:35:10.088Z,10.3
2023-03-29T10:40:10.096Z,10.3
2023-03-29T10:45:10.094Z,10.5
2023-03-29T10:50:10.092Z,10.9
2023-03-29T10:55:10.097Z,11.1
2023-03-29T11:00:10.097Z,11.3
2023-03-29T11:05:10.085Z,11.4
2023-03-29T11:10:10.085Z,11.4
2023-03-29T11:15:10.075Z,11.7
2023-03-29T11:20:10.109Z,11.5
2023-03-29T11:25:10.085Z,11.5
2023-03-29T11:30:10.095Z,11.5
2023-03-29T11:35:10.084Z,11.9
2023-03-29T11:40:10.087Z,11.7
2023-03-29T11:45:10.088Z,12
2023-03-29T11:50:10.140Z,12.3
2023-03-29T11:55:10.102Z,12.2
2023-03-29T12:00:10.174Z,12.3
2023-03-29T12:05:10.103Z,12.4
2023-03-29T12:10:10.120Z,12.4
2023-03-29T12:15:10.086Z,12.5
2023-03-29T12:20:10.098Z,12.5
2023-03-29T12:25:10.417Z,12.4
2023-03-29T12:30:10.099Z,12.8
2023-03-29T12:35:10.100Z,13.2
2023-03-29T12:40:10.104Z,13.1
2023-03-29T12:45:10.090Z,13.4
2023-03-29T12:50:10.122Z,13.7
2023-03-29T12:55:10.101Z,13.4
2023-03-29T13:00:10.098Z,13.2
2023-03-29T13:05:10.148Z,13.2
2023-03-29T13:10:10.107Z,13.2
2023-03-29T13:15:10.092Z,12.9
2023-03-29T13:20:10.098Z,13.1
2023-03-29T13:25:10.094Z,13.1
2023-03-29T13:30:10.091Z,13.2
2023-03-29T13:35:10.085Z,13.8
2023-03-29T13:40:10.107Z,13.5
2023-03-29T13:45:10.088Z,13
2023-03-29T13:50:10.105Z,13.2
2023-03-29T13:55:10.087Z,13.5
2023-03-29T14:00:10.098Z,13.5
2023-03-29T14:05:10.100Z,13.4
2023-03-29T14:10:10.097Z,12.9
2023-03-29T14:15:10.087Z,12.8
2023-03-29T14:20:10.093Z,12.8
2023-03-29T14:25:10.092Z,12.9
2023-03-29T14:30:10.096Z,12.8
2023-03-29T14:35:10.091Z,12.9
2023-03-29T14:40:10.090Z,13.1
2023-03-29T14:45:10.083Z,12.9
2023-03-29T14:50:10.086Z,13
2023-03-29T14:55:10.087Z,12.9
2023-03-29T15:00:10.087Z,12.8
2023-03-29T15:05:10.286Z,12.8
2023-03-29T15:10:10.088Z,12.8
2023-03-29T15:15:10.082Z,12.8
2023-03-29T15:20:10.096Z,12.8
2023-03-29T15:25:10.091Z,12.9
2023-03-29T15:30:10.078Z,13
2023-03-29T15:35:10.090Z,13.1
2023-03-29T15:40:10.093Z,13.2
2023-03-29T15:45:10.098Z,13.2
2023-03-29T15:50:10.108Z,13.1
2023-03-29T15:55:10.095Z,13.1
2023-03-29T16:00:10.092Z,13.1
2023-03-29T16:05:10.093Z,13.2
2023-03-29T16:10:10.115Z,13.2
2023-03-29T16:15:10.097Z,13.3
2023-03-29T16:20:10.100Z,13.2
2023-03-29T16:25:10.097Z,13.2
2023-03-29T16:30:10.090Z,13.2
2023-03-29T16:35:10.085Z,13.2
2023-03-29T16:40:10.092Z,13.1
2023-03-29T16:45:10.082Z,13.1
2023-03-29T16:50:10.138Z,13.1
2023-03-29T16:55:10.090Z,13
2023-03-29T17:00:10.094Z,12.9
2023-03-29T17:05:10.080Z,12.9
2023-03-29T17:10:10.085Z,12.9
2023-03-29T17:15:10.089Z,12.9
2023-03-29T17:20:10.085Z,12.6
2023-03-29T17:25:10.089Z,12.8
2023-03-29T17:30:10.091Z,12.7
2023-03-29T17:35:10.080Z,12.8
2023-03-29T17:40:10.091Z,12.9
2023-03-29T17:45:10.088Z,13
2023-03-29T17:50:10.087Z,13.1
2023-03-29T17:55:10.285Z,13
2023-03-29T18:00:10.114Z,13.1
2023-03-29T18:05:10.092Z,13
2023-03-29T18:10:10.084Z,13
2023-03-29T18:15:10.087Z,12.9
2023-03-29T18:20:10.108Z,12.9
2023-03-29T18:25:10.110Z,12.8
2023-03-29T18:30:10.097Z,12.9
2023-03-29T18:35:10.099Z,12.8
2023-03-29T18:40:10.092Z,12.8
2023-03-29T18:45:10.083Z,12.7
2023-03-29T18:50:10.098Z,12.7
2023-03-29T18:55:10.093Z,12.7
2023-03-29T19:00:10.105Z,12.5
2023-03-29T19:05:10.100Z,12.6
2023-03-29T19:10:10.100Z,12.5
2023-03-29T19:15:10.098Z,12.4
2023-03-29T19:20:10.146Z,12.3
2023-03-29T19:25:10.094Z,12.3
2023-03-29T19:30:10.098Z,12.2
2023-03-29T19:35:10.088Z,12.2
2023-03-29T19:40:10.099Z,12.1
2023-03-29T19:45:10.102Z,12.1
2023-03-29T19:50:10.091Z,12.1
2023-03-29T19:55:10.095Z,12
2023-03-29T20:00:10.089Z,11.9
2023-03-29T20:05:10.095Z,11.9
2023-03-29T20:10:10.086Z,11.9
2023-03-29T20:15:10.088Z,11.7
2023-03-29T20:20:10.095Z,11.8
2023-03-29T20:25:10.083Z,11.8
2023-03-29T20:30:10.103Z,11.6
2023-03-29T20:35:10.086Z,11.4
2023-03-29T20:40:10.091Z,11.2
2023-03-29T20:45:10.082Z,11.1
2023-03-29T20:50:10.098Z,11.1
2023-03-29T20:55:10.085Z,11.2
2023-03-29T21:00:10.117Z,11.3
2023-03-29T21:05:10.100Z,11.2
2023-03-29T21:10:10.100Z,11.2
2023-03-29T21:15:10.090Z,11.1
2023-03-29T21:20:10.099Z,10.9
2023-03-29T21:25:10.089Z,10.7
2023-03-29T21:30:10.087Z,10.7
2023-03-29T21:35:10.103Z,10.6
2023-03-29T21:40:10.101Z,10.3
2023-03-29T21:45:10.087Z,10.5
2023-03-29T21:50:10.080Z,10.7
2023-03-29T21:55:10.088Z,10.8
2023-03-29T22:00:10.097Z,10.6
2023-03-29T22:05:10.093Z,10.9
2023-03-29T22:10:10.098Z,10.9
2023-03-29T22:15:10.093Z,10.8
2023-03-29T22:20:10.111Z,10.8
2023-03-29T22:25:10.094Z,10.9
2023-03-29T22:30:10.101Z,11.1
2023-03-29T22:35:10.114Z,11.1
2023-03-29T22:40:10.103Z,11.2
2023-03-29T22:45:10.105Z,11.3
2023-03-29T22:50:10.118Z,11.3
2023-03-29T22:55:10.116Z,11.3
2023-03-29T23:00:10.110Z,11.2
2023-03-29T23:05:10.111Z,11
2023-03-29T23:10:10.098Z,10.9
2023-03-29T23:15:10.089Z,11
2023-03-29T23:20:10.097Z,11
2023-03-29T23:25:10.078Z,10.8
2023-03-29T23:30:10.106Z,10.6
2023-03-29T23:35:10.084Z,10.9
2023-03-29T23:40:10.100Z,11
2023-03-29T23:45:10.091Z,11
2023-03-29T23:50:10.086Z,10.9
2023-03-29T23:55:10.102Z,10.8
